Time;durP1;ratioP1;P1;durP2;ratioP2;P2;SDS_P1;SDS_P2;PMS_P1;PMS_P2;Temp;Humidity;BMP_temperature;BMP_pressure;BME280_temperature;BME280_humidity;BME280_pressure;Samples;Min_cycle;Max_cycle;Signal;HPM_P1;HPM_P2
2021/03/12 00:01:36;;;;;;;13.23;2.53;;;;;;;6.56;76.80;100305.41;5013984;28;20371;-76
2021/03/12 00:04:01;;;;;;;17.50;2.50;;;;;;;6.55;77.13;100329.19;5014242;28;20026;-77
2021/03/12 00:06:26;;;;;;;13.30;2.47;;;;;;;6.56;77.59;100343.66;5031884;28;20033;-76
2021/03/12 00:08:52;;;;;;;15.27;2.50;;;;;;;6.55;77.36;100344.50;5014483;28;20124;-76
2021/03/12 00:11:20;;;;;;;19.60;3.23;;;;;;;6.43;77.57;100359.38;5014778;28;20279;-75
2021/03/12 00:13:45;;;;;;;16.23;3.13;;;;;;;6.45;77.49;100358.63;5032096;28;20048;-76
2021/03/12 00:16:11;;;;;;;16.20;2.77;;;;;;;6.42;77.53;100363.63;5014513;28;20471;-76
2021/03/12 00:18:39;;;;;;;15.97;2.50;;;;;;;6.41;77.19;100363.56;5014043;28;20068;-76
2021/03/12 00:21:06;;;;;;;9.00;2.10;;;;;;;6.41;77.13;100377.19;5031553;28;21012;-77
2021/03/12 00:23:31;;;;;;;;;;;;;;;6.37;77.33;100374.50;5032239;28;20044;-76
2021/03/12 00:25:56;;;;;;;17.00;2.33;;;;;;;6.34;76.42;100382.91;5032179;28;19913;-75
2021/03/12 00:28:22;;;;;;;19.75;3.25;;;;;;;6.25;77.58;100390.28;5013732;28;20037;-76
2021/03/12 00:30:48;;;;;;;15.30;3.03;;;;;;;6.26;77.50;100397.09;5031429;28;20017;-76
2021/03/12 00:33:16;;;;;;;17.77;2.50;;;;;;;6.29;77.47;100386.13;5013694;28;20029;-76
2021/03/12 00:35:43;;;;;;;17.07;3.23;;;;;;;6.21;77.78;100404.59;5031099;28;20021;-76
2021/03/12 00:38:09;;;;;;;21.20;3.47;;;;;;;6.27;78.42;100400.53;5013814;28;20037;-77
2021/03/12 00:40:40;;;;;;;18.93;3.03;;;;;;;6.28;78.81;100394.59;5032778;28;20029;-76
2021/03/12 00:43:05;;;;;;;27.63;3.27;;;;;;;6.26;79.08;100396.25;5013764;28;20113;-77
2021/03/12 00:45:34;;;;;;;20.23;2.70;;;;;;;6.27;79.19;100419.25;5031498;28;20108;-76
2021/03/12 00:47:59;;;;;;;20.80;2.77;;;;;;;6.32;78.88;100422.81;5031021;28;20796;-77
2021/03/12 00:50:29;;;;;;;12.15;2.15;;;;;;;6.27;79.18;100426.03;5013500;28;20018;-76
2021/03/12 00:52:55;;;;;;;16.97;3.03;;;;;;;6.27;78.83;100433.69;5031167;28;20040;-76
2021/03/12 00:55:20;;;;;;;16.08;2.83;;;;;;;6.19;78.96;100438.53;5013428;28;20025;-76
2021/03/12 00:57:46;;;;;;;11.15;2.15;;;;;;;6.16;79.22;100441.81;5030956;28;20394;-76
2021/03/12 01:00:12;;;;;;;11.90;2.83;;;;;;;6.16;79.01;100426.50;5031102;28;20025;-76
2021/03/12 01:02:37;;;;;;;;;;;;;;;6.16;78.98;100452.00;5031372;28;20475;-76
2021/03/12 01:05:05;;;;;;;20.17;3.90;;;;;;;6.18;78.96;100449.53;5013361;28;19924;-75
2021/03/12 01:07:30;;;;;;;20.63;2.87;;;;;;;6.17;79.53;100456.28;5013412;28;20475;-75
2021/03/12 01:09:56;;;;;;;18.93;2.70;;;;;;;6.16;79.03;100461.34;5013994;28;20040;-73
2021/03/12 01:12:21;;;;;;;18.20;3.27;;;;;;;6.17;79.02;100473.28;5012767;28;20272;-77
2021/03/12 01:14:46;;;;;;;18.13;2.37;;;;;;;6.11;78.88;100461.19;5031346;28;20029;-76
2021/03/12 01:17:11;;;;;;;17.40;1.87;;;;;;;6.13;78.45;100467.22;5013518;28;20276;-75
2021/03/12 01:19:37;;;;;;;13.77;1.93;;;;;;;6.12;78.88;100477.34;5012721;28;20052;-75
2021/03/12 01:22:02;;;;;;;14.68;2.97;;;;;;;6.14;78.78;100475.72;5030410;28;20379;-76
2021/03/12 01:24:28;;;;;;;16.55;3.03;;;;;;;6.14;78.72;100474.03;5030850;28;20100;-76
2021/03/12 01:26:53;;;;;;;16.75;2.63;;;;;;;6.12;78.67;100475.66;5030918;28;20407;-76
2021/03/12 01:29:18;;;;;;;17.10;2.55;;;;;;;6.05;79.33;100489.03;5030640;28;20486;-76
2021/03/12 01:31:43;;;;;;;19.30;2.87;;;;;;;6.12;79.14;100479.91;5012353;28;20047;-76
2021/03/12 01:34:09;;;;;;;19.23;3.25;;;;;;;6.10;78.81;100487.50;5013150;28;20036;-75
2021/03/12 01:36:35;;;;;;;19.15;2.20;;;;;;;6.15;78.43;100469.81;5030312;28;20036;-78
2021/03/12 01:39:00;;;;;;;16.55;2.22;;;;;;;6.15;78.57;100483.44;5012595;28;20025;-77
2021/03/12 01:41:26;;;;;;;14.95;2.38;;;;;;;6.14;78.21;100484.25;5012987;28;20029;-74
2021/03/12 01:43:51;;;;;;;15.50;2.75;;;;;;;6.19;78.47;100492.09;5012692;28;21649;-76
2021/03/12 01:46:16;;;;;;;14.65;1.98;;;;;;;6.14;78.50;100489.34;5012662;28;20021;-76
2021/03/12 01:48:41;;;;;;;16.37;2.90;;;;;;;6.11;78.12;100499.44;5030311;28;20025;-76
2021/03/12 01:51:08;;;;;;;15.27;3.10;;;;;;;6.08;78.37;100495.91;5030066;28;20033;-76
2021/03/12 01:53:35;;;;;;;13.70;2.20;;;;;;;5.99;78.11;100505.78;5012725;28;20059;-76
2021/03/12 01:56:02;;;;;;;18.43;2.37;;;;;;;5.90;78.45;100506.31;5012463;28;20033;-76
2021/03/12 01:58:28;;;;;;;12.23;2.20;;;;;;;5.90;78.56;100501.22;5029105;28;20029;-76
2021/03/12 02:00:53;;;;;;;16.83;2.75;;;;;;;5.88;78.84;100505.38;5029818;28;20797;-76
2021/03/12 02:03:22;;;;;;;15.75;3.38;;;;;;;5.77;78.87;100512.59;5030136;28;20029;-74
2021/03/12 02:05:47;;;;;;;20.57;3.17;;;;;;;5.68;79.35;100516.50;5012467;28;20021;-75
2021/03/12 02:08:13;;;;;;;14.43;2.42;;;;;;;5.71;79.21;100507.28;5030130;28;20123;-76
2021/03/12 02:10:39;;;;;;;14.15;2.15;;;;;;;5.57;79.51;100519.50;5012675;28;20084;-76
2021/03/12 02:13:42;;;;;;;16.75;3.03;;;;;;;5.54;79.56;100514.31;5012637;28;20104;-75
2021/03/12 02:16:28;;;;;;;12.80;2.23;;;;;;;5.53;79.70;100512.56;5029903;28;20084;-75
2021/03/12 02:19:07;;;;;;;14.87;2.07;;;;;;;5.51;79.51;100516.69;5028920;28;20041;-75
2021/03/12 02:21:52;;;;;;;20.00;3.10;;;;;;;5.46;79.55;100513.09;5011990;28;20025;-75
2021/03/12 02:24:32;;;;;;;14.17;2.27;;;;;;;5.52;79.41;100526.06;5030092;28;20137;-76
2021/03/12 02:27:07;;;;;;;15.33;2.20;;;;;;;5.44;79.95;100527.47;5012578;28;20402;-76
2021/03/12 02:29:35;;;;;;;20.47;2.27;;;;;;;5.42;79.47;100524.00;5029946;28;20083;-77
2021/03/12 02:32:03;;;;;;;15.57;2.17;;;;;;;5.43;79.44;100533.38;5015710;28;20033;-76
2021/03/12 02:34:35;;;;;;;14.40;2.30;;;;;;;5.40;79.97;100540.91;5032693;28;20040;-76
2021/03/12 02:37:02;;;;;;;18.20;2.47;;;;;;;5.31;80.35;100527.81;5015546;28;20398;-76
2021/03/12 02:39:31;;;;;;;10.10;2.23;;;;;;;5.34;80.27;100530.47;5016280;28;20049;-77
2021/03/12 02:41:59;;;;;;;20.70;2.63;;;;;;;5.35;79.98;100536.44;5016094;28;20033;-75
2021/03/12 02:44:26;;;;;;;11.87;1.90;;;;;;;5.29;80.53;100540.47;5033808;28;20124;-76
2021/03/12 02:46:55;;;;;;;14.23;1.83;;;;;;;5.26;80.06;100542.03;5033648;28;20041;-75
2021/03/12 02:49:21;;;;;;;12.97;1.63;;;;;;;5.22;80.57;100535.09;5015785;28;20029;-75
2021/03/12 02:51:46;;;;;;;13.82;2.30;;;;;;;5.15;80.64;100548.34;5033318;28;20551;-76
2021/03/12 02:54:12;;;;;;;10.82;1.92;;;;;;;5.25;80.10;100530.97;5015746;28;20516;-74
2021/03/12 02:56:38;;;;;;;15.13;2.65;;;;;;;5.21;80.18;100544.41;5033602;28;20025;-76
2021/03/12 02:59:04;;;;;;;15.75;2.50;;;;;;;5.21;80.35;100535.91;5033782;28;20082;-80
2021/03/12 03:01:31;;;;;;;15.45;2.83;;;;;;;5.18;80.34;100540.84;5015440;28;20026;-75
2021/03/12 03:03:58;;;;;;;17.17;1.90;;;;;;;5.11;80.36;100541.41;5033160;28;20029;-76
2021/03/12 03:06:24;;;;;;;25.60;2.80;;;;;;;5.19;80.26;100534.94;5014640;28;20108;-76
2021/03/12 03:08:51;;;;;;;12.47;1.67;;;;;;;5.17;80.29;100544.19;5033125;28;20017;-76
2021/03/12 03:11:17;;;;;;;21.77;2.97;;;;;;;5.12;80.02;100551.66;5015524;28;20021;-77
2021/03/12 03:13:45;;;;;;;12.60;2.13;;;;;;;5.05;80.34;100551.34;5015654;28;20104;-77
2021/03/12 03:16:20;;;;;;;12.80;2.10;;;;;;;5.09;80.72;100540.47;5033387;28;20028;-76
2021/03/12 03:18:46;;;;;;;10.37;2.03;;;;;;;5.05;80.72;100548.81;5033267;28;20564;-76
2021/03/12 03:21:14;;;;;;;20.05;2.13;;;;;;;4.98;81.31;100551.09;5014970;28;20112;-76
2021/03/12 03:23:42;;;;;;;16.73;3.20;;;;;;;4.89;81.86;100550.72;5033091;28;20094;-77
2021/03/12 03:26:08;;;;;;;10.93;2.40;;;;;;;4.83;82.24;100547.91;5015530;28;20398;-77
2021/03/12 03:28:34;;;;;;;15.97;3.40;;;;;;;4.89;82.34;100553.28;5014973;28;20037;-76
2021/03/12 03:31:00;;;;;;;20.00;2.60;;;;;;;4.75;82.80;100551.81;5015060;28;20925;-76
2021/03/12 03:33:25;;;;;;;19.87;2.43;;;;;;;4.76;83.01;100548.47;5032870;28;20398;-76
2021/03/12 03:35:51;;;;;;;13.40;2.43;;;;;;;4.82;82.96;100556.34;5014957;28;20029;-75
2021/03/12 03:38:16;;;;;;;18.03;3.07;;;;;;;4.71;82.97;100549.06;5033181;28;20298;-76
2021/03/12 03:40:41;;;;;;;14.68;2.42;;;;;;;4.72;83.17;100554.22;5032842;28;20440;-76
2021/03/12 03:43:08;;;;;;;12.32;2.10;;;;;;;4.77;82.74;100559.50;5014085;28;20465;-77
2021/03/12 03:45:35;;;;;;;17.50;2.90;;;;;;;4.75;82.60;100562.00;5032412;28;20022;-75
2021/03/12 03:48:01;;;;;;;12.67;2.27;;;;;;;4.79;82.94;100562.97;5032817;28;20499;-76
2021/03/12 03:50:29;;;;;;;18.50;2.70;;;;;;;4.71;83.16;100551.63;5014217;28;20035;-74
2021/03/12 03:52:55;;;;;;;15.23;2.73;;;;;;;4.68;82.89;100560.88;5032660;28;20069;-76
2021/03/12 03:55:24;;;;;;;20.05;2.47;;;;;;;4.59;83.00;100563.03;5032411;28;20021;-76
2021/03/12 03:57:50;;;;;;;15.40;2.00;;;;;;;4.56;83.32;100565.44;5032528;28;20031;-77
2021/03/12 04:00:16;;;;;;;12.18;1.70;;;;;;;4.57;83.31;100564.63;5032361;28;20030;-76
2021/03/12 04:02:43;;;;;;;16.33;2.37;;;;;;;4.56;83.72;100554.41;5031996;28;20057;-76
2021/03/12 04:05:10;;;;;;;10.20;1.87;;;;;;;4.53;83.80;100572.03;5014411;28;20033;-74
2021/03/12 04:07:37;;;;;;;11.60;1.90;;;;;;;4.55;83.50;100567.88;5032434;28;20425;-76
2021/03/12 04:10:03;;;;;;;14.43;2.53;;;;;;;4.49;83.81;100575.25;5014710;28;20087;-76
2021/03/12 04:12:30;;;;;;;15.15;2.35;;;;;;;4.40;84.27;100573.19;5032091;28;20021;-77
2021/03/12 04:14:55;;;;;;;11.53;2.00;;;;;;;4.38;84.28;100575.66;5032353;28;20087;-78
2021/03/12 04:17:21;;;;;;;17.13;3.45;;;;;;;4.46;84.25;100575.13;5031990;28;20025;-75
2021/03/12 04:19:47;;;;;;;19.67;1.88;;;;;;;4.44;84.47;100574.19;5014319;28;20032;-76
2021/03/12 04:22:13;;;;;;;13.23;2.05;;;;;;;4.37;84.70;100573.94;5013512;28;20024;-75
2021/03/12 04:24:39;;;;;;;;;;;;;;;4.38;84.61;100575.66;5014621;28;20033;-75
2021/03/12 04:27:05;;;;;;;14.37;1.80;;;;;;;4.43;84.95;100572.44;5031840;28;19917;-76
2021/03/12 04:29:30;;;;;;;;;;;;;;;4.32;85.03;100584.72;5032482;28;20071;-76
2021/03/12 04:31:56;;;;;;;9.53;1.60;;;;;;;4.30;85.22;100586.31;5031706;28;19912;-76
2021/03/12 04:34:22;;;;;;;15.38;2.40;;;;;;;4.22;85.28;100578.31;5031719;28;20065;-79
2021/03/12 04:36:47;;;;;;;19.83;3.22;;;;;;;4.20;85.62;100574.84;5031576;28;20025;-74
2021/03/12 04:39:13;;;;;;;12.88;2.38;;;;;;;4.41;85.08;100581.69;5031483;28;20030;-77
2021/03/12 04:41:39;;;;;;;16.73;2.80;;;;;;;4.32;85.08;100584.72;5013762;28;20017;-76
2021/03/12 04:44:05;;;;;;;13.75;2.20;;;;;;;4.23;85.21;100579.22;5031931;28;20033;-77
2021/03/12 04:46:31;;;;;;;;;;;;;;;4.25;85.31;100578.47;5031959;28;20037;-76
2021/03/12 04:48:57;;;;;;;17.50;2.27;;;;;;;4.17;85.84;100578.91;5013911;28;20287;-76
2021/03/12 04:51:23;;;;;;;18.42;2.42;;;;;;;4.23;85.74;100585.19;5013023;28;20013;-76
2021/03/12 04:53:48;;;;;;;17.27;2.95;;;;;;;4.17;85.75;100582.34;5013302;28;20483;-76
2021/03/12 04:56:14;;;;;;;17.55;2.97;;;;;;;4.24;85.73;100581.81;5013909;28;20473;-76
2021/03/12 04:58:40;;;;;;;16.70;2.33;;;;;;;4.28;85.43;100590.47;5031472;28;20021;-76
2021/03/12 05:01:09;;;;;;;18.63;2.97;;;;;;;4.24;85.82;100586.91;5030541;28;20482;-76
2021/03/12 05:03:37;;;;;;;11.97;2.23;;;;;;;4.31;85.80;100586.38;5031031;28;20746;-76
2021/03/12 05:06:04;;;;;;;19.57;2.43;;;;;;;4.28;85.60;100577.75;5013258;28;20029;-76
2021/03/12 05:08:31;;;;;;;19.23;2.33;;;;;;;4.35;85.34;100585.72;5013150;28;20160;-76
2021/03/12 05:11:01;;;;;;;14.83;2.37;;;;;;;4.35;85.21;100582.28;5031464;28;20088;-76
2021/03/12 05:13:26;;;;;;;15.77;2.23;;;;;;;4.43;84.98;100577.53;5030898;28;20026;-76
2021/03/12 05:15:52;;;;;;;11.98;2.42;;;;;;;4.34;85.40;100583.97;5013216;28;20045;-76
2021/03/12 05:18:17;;;;;;;17.23;2.65;;;;;;;4.37;85.31;100599.34;5013181;28;20470;-76
2021/03/12 05:20:43;;;;;;;19.00;2.83;;;;;;;4.28;85.51;100593.00;5012858;28;20112;-75
2021/03/12 05:23:08;;;;;;;14.97;1.60;;;;;;;4.25;85.55;100592.88;5030921;28;20025;-76
2021/03/12 05:25:33;;;;;;;13.23;1.93;;;;;;;4.36;85.35;100590.00;5030810;28;20284;-77
2021/03/12 05:27:58;;;;;;;15.10;2.50;;;;;;;4.38;84.98;100583.28;5013374;28;20071;-76
2021/03/12 05:30:24;;;;;;;16.07;2.00;;;;;;;4.38;84.79;100582.44;5030916;28;20021;-76
2021/03/12 05:32:50;;;;;;;15.15;2.17;;;;;;;4.29;85.04;100580.34;5030637;28;20266;-77
2021/03/12 05:35:15;;;;;;;23.73;2.60;;;;;;;4.37;84.78;100584.09;5030305;28;20083;-75
2021/03/12 05:37:40;;;;;;;20.17;3.07;;;;;;;4.38;84.59;100575.66;5030825;28;20343;-75
2021/03/12 05:40:06;;;;;;;18.80;2.33;;;;;;;4.34;84.77;100589.06;5030546;28;20482;-75
2021/03/12 05:42:33;;;;;;;22.35;2.97;;;;;;;4.34;85.38;100594.13;5012885;28;20334;-75
2021/03/12 05:44:59;;;;;;;9.60;2.87;;;;;;;4.36;85.13;100587.44;5012741;28;20768;-76
2021/03/12 05:47:25;;;;;;;14.67;2.53;;;;;;;4.27;85.29;100586.19;5011401;28;20017;-78
2021/03/12 05:49:52;;;;;;;20.63;2.22;;;;;;;4.29;85.44;100590.53;5012445;28;20072;-76
2021/03/12 05:52:18;;;;;;;18.47;2.10;;;;;;;4.20;86.21;100592.63;5028752;28;20021;-76
2021/03/12 05:54:44;;;;;;;14.32;1.92;;;;;;;4.13;86.19;100588.09;5030418;28;20539;-76
2021/03/12 05:57:10;;;;;;;14.63;3.00;;;;;;;4.04;86.34;100587.66;5012359;28;20075;-75
2021/03/12 05:59:38;;;;;;;16.30;2.55;;;;;;;4.03;86.49;100585.94;5030480;28;20026;-76
2021/03/12 06:02:04;;;;;;;23.37;2.53;;;;;;;4.05;86.07;100585.19;5029730;28;20072;-76
2021/03/12 06:04:29;;;;;;;13.95;2.20;;;;;;;3.98;86.25;100592.47;5013492;28;20045;-76
2021/03/12 06:06:55;;;;;;;18.67;3.33;;;;;;;3.91;86.58;100590.47;5036888;28;20029;-76
2021/03/12 06:09:21;;;;;;;19.40;2.60;;;;;;;3.91;87.06;100593.88;5018626;28;20083;-76
2021/03/12 06:11:46;;;;;;;12.32;2.25;;;;;;;3.86;87.05;100587.69;5019399;28;20429;-76
2021/03/12 06:14:11;;;;;;;14.45;2.45;;;;;;;3.95;86.80;100589.81;5019197;28;20049;-74
2021/03/12 06:16:37;;;;;;;19.37;2.73;;;;;;;3.97;86.86;100595.81;5036384;28;20434;-76
2021/03/12 06:19:13;;;;;;;29.97;3.00;;;;;;;3.93;86.54;100592.28;5036964;28;20267;-76
2021/03/12 06:21:39;;;;;;;11.95;2.72;;;;;;;3.84;86.90;100591.81;5018537;28;20078;-74
2021/03/12 06:24:38;;;;;;;18.03;2.93;;;;;;;3.94;86.75;100590.59;5018958;28;20120;-75
2021/03/12 06:27:04;;;;;;;25.60;3.20;;;;;;;3.92;86.88;100588.00;5036070;28;20048;-76
2021/03/12 06:29:37;;;;;;;17.33;3.45;;;;;;;3.97;86.70;100583.13;5018894;28;20502;-76
2021/03/12 06:32:04;;;;;;;16.83;2.77;;;;;;;4.01;86.56;100595.16;5036427;28;20032;-75
2021/03/12 06:34:30;;;;;;;16.27;3.43;;;;;;;4.11;86.16;100584.59;5018759;28;20747;-75
2021/03/12 06:36:56;;;;;;;19.67;3.33;;;;;;;4.12;86.12;100591.44;5036431;28;20025;-75
2021/03/12 06:39:35;;;;;;;21.73;3.25;;;;;;;4.25;85.34;100586.09;5018524;28;20463;-76
2021/03/12 06:42:08;;;;;;;19.77;3.13;;;;;;;4.34;85.21;100594.13;5036796;28;20096;-76
2021/03/12 06:44:34;;;;;;;14.57;2.40;;;;;;;4.45;85.10;100586.97;5035980;28;20052;-75
2021/03/12 06:47:02;;;;;;;24.10;2.87;;;;;;;4.52;84.59;100593.19;5036593;28;20025;-73
2021/03/12 06:49:27;;;;;;;23.60;3.67;;;;;;;4.68;84.37;100585.44;5036172;28;20033;-75
2021/03/12 06:51:57;;;;;;;21.70;3.20;;;;;;;4.78;83.93;100577.38;5034768;28;20036;-75
2021/03/12 06:54:28;;;;;;;18.47;2.47;;;;;;;5.05;83.48;100576.81;5034959;28;20030;-75
2021/03/12 06:56:54;;;;;;;23.10;4.90;;;;;;;5.19;82.57;100589.28;5018491;28;20041;-76
2021/03/12 06:59:25;;;;;;;;;;;;;;;5.18;82.29;100579.03;5019000;28;20037;-76
2021/03/12 07:01:57;;;;;;;16.47;2.57;;;;;;;5.27;81.22;100564.16;5017409;28;20284;-74
2021/03/12 07:04:25;;;;;;;22.23;3.30;;;;;;;5.22;81.87;100573.28;5036089;28;20063;-76
2021/03/12 07:06:51;;;;;;;18.97;3.07;;;;;;;5.36;81.88;100568.75;5036300;28;20528;-75
2021/03/12 07:09:17;;;;;;;22.50;3.20;;;;;;;5.50;81.77;100563.38;5018398;28;20026;-75
2021/03/12 07:11:43;;;;;;;20.73;3.80;;;;;;;5.58;81.30;100567.09;5036279;28;20501;-75
2021/03/12 07:14:09;;;;;;;20.17;3.63;;;;;;;5.65;80.54;100560.56;5018255;28;20052;-74
2021/03/12 07:16:34;;;;;;;17.38;4.32;;;;;;;5.92;80.47;100568.44;5034441;28;20060;-75
2021/03/12 07:19:00;;;;;;;14.75;2.78;;;;;;;6.07;79.74;100557.94;5032905;28;20069;-75
2021/03/12 07:21:28;;;;;;;20.30;3.25;;;;;;;6.50;78.43;100565.44;5032524;28;20079;-75
2021/03/12 07:23:59;;;;;;;20.67;3.43;;;;;;;6.61;77.74;100548.84;5032850;28;20033;-75
2021/03/12 07:26:31;;;;;;;22.17;3.60;;;;;;;6.86;76.60;100548.88;5032702;28;20083;-75
2021/03/12 07:29:00;;;;;;;15.17;3.10;;;;;;;6.91;76.14;100551.56;5015284;28;20099;-75
2021/03/12 07:31:38;;;;;;;21.47;3.50;;;;;;;6.78;76.70;100546.84;5014460;28;20026;-75
2021/03/12 07:34:16;;;;;;;16.03;3.17;;;;;;;6.62;77.43;100544.59;5014248;28;20029;-75
2021/03/12 07:36:47;;;;;;;16.40;2.93;;;;;;;6.44;78.24;100553.34;5014657;28;20017;-75
2021/03/12 07:39:22;;;;;;;26.43;4.37;;;;;;;6.42;78.46;100536.25;5032359;28;20033;-75
2021/03/12 07:41:49;;;;;;;25.27;3.57;;;;;;;6.50;78.25;100551.03;5014892;28;20505;-75
2021/03/12 07:44:16;;;;;;;21.43;3.43;;;;;;;7.06;77.48;100551.19;5032605;28;20037;-75
2021/03/12 07:46:45;;;;;;;19.97;3.17;;;;;;;7.60;75.25;100538.47;5032563;28;20029;-74
2021/03/12 07:49:28;;;;;;;20.30;3.30;;;;;;;7.75;74.31;100539.78;5032558;28;20071;-75
2021/03/12 07:51:54;;;;;;;15.53;2.90;;;;;;;7.64;74.46;100547.94;5031864;28;20490;-74
2021/03/12 07:54:34;;;;;;;;;;;;;;;8.07;73.16;100543.28;5032773;28;20024;-75
2021/03/12 07:57:00;;;;;;;22.00;3.63;;;;;;;8.58;72.04;100544.72;5032143;28;19913;-74
2021/03/12 07:59:44;;;;;;;18.23;3.13;;;;;;;8.80;71.65;100546.19;5014795;28;20502;-75
2021/03/12 08:02:10;;;;;;;17.77;2.80;;;;;;;8.93;69.68;100535.41;5031621;28;20034;-76
2021/03/12 08:04:35;;;;;;;21.15;3.58;;;;;;;9.28;69.80;100538.84;5014609;28;20029;-75
2021/03/12 08:07:30;;;;;;;22.95;3.75;;;;;;;9.66;67.15;100537.16;5014036;28;20017;-77
2021/03/12 08:10:13;;;;;;;19.63;3.50;;;;;;;10.26;66.63;100521.34;4983213;28;20132;-75
2021/03/12 08:12:40;;;;;;;22.52;3.78;;;;;;;9.86;66.41;100535.91;5031356;28;20033;-77
2021/03/12 08:15:24;;;;;;;24.10;3.63;;;;;;;9.67;66.83;100542.31;5012173;28;20395;-77
2021/03/12 08:17:56;;;;;;;20.85;3.95;;;;;;;9.24;67.92;100549.84;5013444;28;20376;-76
2021/03/12 08:20:36;;;;;;;25.67;4.23;;;;;;;8.65;70.07;100554.31;5030387;28;20029;-76
2021/03/12 08:23:02;;;;;;;18.03;3.27;;;;;;;8.20;72.02;100544.50;5029688;28;20033;-76
2021/03/12 08:25:31;;;;;;;28.27;3.97;;;;;;;8.22;72.95;100547.97;5012609;28;20083;-76
2021/03/12 08:27:59;;;;;;;19.10;3.47;;;;;;;8.22;73.03;100539.44;5028458;28;20091;-76
2021/03/12 08:30:25;;;;;;;30.27;4.20;;;;;;;8.11;73.10;100542.53;5012385;28;20033;-76
2021/03/12 08:32:52;;;;;;;29.58;4.10;;;;;;;8.04;73.69;100543.19;5029752;28;20033;-76
2021/03/12 08:35:39;;;;;;;21.53;3.73;;;;;;;8.04;72.87;100532.97;5030690;28;20075;-75
2021/03/12 08:38:28;;;;;;;19.75;3.15;;;;;;;7.75;74.35;100539.78;5011332;28;20449;-76
2021/03/12 08:41:04;;;;;;;29.57;4.60;;;;;;;7.58;74.23;100525.63;5015271;28;20103;-76
2021/03/12 08:43:31;;;;;;;26.25;3.83;;;;;;;7.59;74.84;100539.28;5031227;28;20079;-76
2021/03/12 08:45:59;;;;;;;27.67;3.97;;;;;;;7.52;74.60;100545.03;5030923;28;20506;-76
2021/03/12 08:48:30;;;;;;;25.57;4.03;;;;;;;7.36;76.07;100529.19;5031102;28;20041;-76
2021/03/12 08:51:08;;;;;;;30.67;4.67;;;;;;;7.33;76.63;100525.69;5012477;28;20025;-77
2021/03/12 08:53:36;;;;;;;24.30;4.20;;;;;;;7.35;77.12;100529.16;5030219;28;20044;-77
2021/03/12 08:56:03;;;;;;;20.77;4.37;;;;;;;7.42;77.15;100524.28;5030537;28;20034;-74
2021/03/12 08:58:31;;;;;;;27.03;4.07;;;;;;;7.57;77.04;100513.69;5013100;28;20030;-76
2021/03/12 09:00:59;;;;;;;32.80;4.33;;;;;;;7.75;76.54;100503.97;5012195;28;20035;-76
2021/03/12 09:03:34;;;;;;;24.00;4.50;;;;;;;7.81;75.89;100498.22;5030603;28;20029;-77
2021/03/12 09:06:27;;;;;;;29.17;4.33;;;;;;;8.02;75.51;100503.03;5030817;28;20490;-75
2021/03/12 09:08:53;;;;;;;26.83;4.07;;;;;;;8.11;75.36;100499.03;5030842;28;20037;-76
2021/03/12 09:11:24;;;;;;;28.70;4.07;;;;;;;8.08;75.76;100496.41;5030270;28;20025;-76
2021/03/12 09:13:51;;;;;;;17.83;4.37;;;;;;;7.90;76.13;100493.34;5030478;28;20033;-77
2021/03/12 09:16:22;;;;;;;20.37;3.73;;;;;;;7.78;76.05;100501.50;5030569;28;20021;-75
2021/03/12 09:18:49;;;;;;;25.80;3.77;;;;;;;7.68;76.64;100494.41;5030599;28;20037;-76
2021/03/12 09:21:18;;;;;;;31.77;5.20;;;;;;;7.66;77.06;100495.19;5029987;28;20084;-76
2021/03/12 09:23:50;;;;;;;26.30;4.37;;;;;;;7.67;77.07;100490.09;5012844;28;20179;-76
2021/03/12 09:26:24;;;;;;;25.67;3.57;;;;;;;7.54;77.10;100484.59;5012899;28;20040;-74
2021/03/12 09:28:51;;;;;;;22.80;4.03;;;;;;;7.36;78.16;100500.22;5030759;28;20218;-76
2021/03/12 09:31:19;;;;;;;25.33;3.97;;;;;;;7.13;79.95;100499.50;5012285;28;20024;-77
2021/03/12 09:33:50;;;;;;;16.27;3.67;;;;;;;6.98;81.92;100488.81;5031190;28;20083;-79
2021/03/12 09:36:25;;;;;;;22.80;3.90;;;;;;;6.86;83.22;100497.81;5032380;28;20120;-78
2021/03/12 09:38:52;;;;;;;22.43;3.63;;;;;;;6.54;84.72;100506.94;5032377;28;20561;-79
2021/03/12 09:41:22;;;;;;;22.30;4.13;;;;;;;6.54;86.48;100498.41;5030171;28;20036;-79
2021/03/12 09:44:10;;;;;;;16.97;2.73;;;;;;;6.50;86.87;100494.00;5014844;28;20509;-80
2021/03/12 09:46:40;;;;;;;26.20;4.87;;;;;;;6.55;86.89;100477.19;5032430;28;20025;-79
2021/03/12 09:49:16;;;;;;;23.10;4.10;;;;;;;6.78;87.11;100476.25;5012947;28;20068;-80
2021/03/12 09:51:44;;;;;;;21.37;3.83;;;;;;;7.01;86.55;100478.69;5012677;28;20025;-77
2021/03/12 09:54:11;;;;;;;21.93;3.70;;;;;;;7.08;85.90;100486.59;5012515;28;20025;-79
2021/03/12 09:56:40;;;;;;;23.30;5.13;;;;;;;7.29;85.87;100465.09;5012984;28;20072;-80
2021/03/12 09:59:06;;;;;;;22.80;3.87;;;;;;;7.51;84.62;100470.03;5012946;28;20033;-78
2021/03/12 10:01:36;;;;;;;24.77;3.65;;;;;;;7.85;83.17;100461.66;5012025;28;20022;-78
2021/03/12 10:04:02;;;;;;;25.10;3.67;;;;;;;8.05;83.00;100457.09;5012667;28;20025;-78
2021/03/12 10:06:27;;;;;;;19.38;2.83;;;;;;;8.51;82.58;100448.13;5030004;28;20021;-77
2021/03/12 10:09:05;;;;;;;21.02;3.83;;;;;;;9.20;78.53;100445.53;5012690;28;20026;-78
2021/03/12 10:11:45;;;;;;;14.97;3.07;;;;;;;8.96;77.55;100443.25;5012495;28;20034;-81
2021/03/12 10:14:31;;;;;;;17.77;2.73;;;;;;;9.50;77.12;100433.38;5012824;28;20029;-77
2021/03/12 10:17:26;;;;;;;13.85;2.88;;;;;;;10.17;72.98;100444.13;5012489;28;20394;-77
2021/03/12 10:20:10;;;;;;;20.20;2.90;;;;;;;10.03;74.15;100445.56;5030335;28;20029;-77
2021/03/12 10:22:38;;;;;;;14.40;2.53;;;;;;;9.64;75.15;100433.66;5028333;28;20025;-78
2021/03/12 10:25:32;;;;;;;18.60;3.23;;;;;;;9.15;75.16;100430.06;5030194;28;20017;-77
2021/03/12 10:28:12;;;;;;;18.03;2.73;;;;;;;8.76;76.44;100439.34;5029150;28;20104;-77
2021/03/12 10:30:48;;;;;;;21.80;4.13;;;;;;;9.03;76.20;100429.75;5011712;28;20025;-76
2021/03/12 10:33:25;;;;;;;17.13;3.00;;;;;;;9.66;75.05;100434.56;5011762;28;20033;-77
2021/03/12 10:36:02;;;;;;;17.17;2.83;;;;;;;10.14;73.13;100416.72;5010199;28;20025;-77
2021/03/12 10:38:30;;;;;;;14.43;3.30;;;;;;;10.16;73.78;100421.88;5027785;28;20060;-77
2021/03/12 10:41:04;;;;;;;18.57;2.97;;;;;;;10.06;73.46;100418.25;5027060;28;20038;-78
2021/03/12 10:43:32;;;;;;;18.67;3.03;;;;;;;9.42;74.66;100416.09;5009767;28;20630;-80
2021/03/12 10:46:05;;;;;;;18.90;3.63;;;;;;;9.54;75.49;100411.25;5009707;28;20076;-78
2021/03/12 10:48:43;;;;;;;16.90;3.27;;;;;;;9.46;73.87;100416.22;5027998;28;20107;-78
2021/03/12 10:51:09;;;;;;;17.97;3.40;;;;;;;9.66;75.42;100404.66;5011900;28;20497;-79
2021/03/12 10:53:53;;;;;;;10.73;2.20;;;;;;;9.29;74.67;100390.19;5014693;28;20128;-76
2021/03/12 10:56:20;;;;;;;14.90;3.30;;;;;;;9.30;76.32;100399.63;5032472;28;20076;-78
2021/03/12 10:58:48;;;;;;;17.53;3.63;;;;;;;8.95;76.45;100401.41;5015267;28;20025;-78
2021/03/12 11:01:18;;;;;;;20.77;3.10;;;;;;;8.97;76.66;100393.75;5032443;28;20036;-79
2021/03/12 11:03:44;;;;;;;19.00;3.40;;;;;;;8.74;75.97;100393.19;5015375;28;20026;-78
2021/03/12 11:06:11;;;;;;;22.10;4.03;;;;;;;8.74;77.75;100399.19;5032743;28;20021;-78
2021/03/12 11:08:37;;;;;;;15.43;3.80;;;;;;;8.50;78.66;100388.38;5015041;28;20025;-79
2021/03/12 11:11:07;;;;;;;27.80;4.45;;;;;;;8.55;77.66;100384.22;5014529;28;20032;-78
2021/03/12 11:13:33;;;;;;;19.90;3.93;;;;;;;8.26;78.25;100380.91;5014881;28;20032;-77
2021/03/12 11:15:59;;;;;;;18.13;4.37;;;;;;;8.49;79.05;100378.97;5015061;28;20018;-78
2021/03/12 11:18:29;;;;;;;18.10;4.03;;;;;;;8.59;77.90;100367.25;5015124;28;20494;-78
2021/03/12 11:20:55;;;;;;;23.97;4.10;;;;;;;8.74;76.37;100357.34;5032481;28;20359;-76
2021/03/12 11:23:20;;;;;;;18.95;3.88;;;;;;;8.90;76.23;100366.28;5014958;28;20108;-78
2021/03/12 11:25:46;;;;;;;23.55;3.85;;;;;;;8.90;76.27;100356.88;5032837;28;20018;-78
2021/03/12 11:28:11;;;;;;;18.30;3.97;;;;;;;8.98;75.55;100339.13;5032674;28;20581;-78
2021/03/12 11:30:36;;;;;;;15.55;3.83;;;;;;;8.91;76.05;100340.69;5032520;28;20038;-78
2021/03/12 11:33:03;;;;;;;15.23;4.18;;;;;;;8.81;75.41;100341.31;5032384;28;20033;-78
2021/03/12 11:35:29;;;;;;;21.03;4.37;;;;;;;8.61;75.42;100322.06;5015374;28;20025;-81